Terminal Aerodrome Forecast
Issued by NWS

Home | Current Version | Previous Version | Text Only | Print | Product List | Glossary On
Versions: 1 2 3 4 5 6 7 8 9 10 11 12 13 14 15 16 17 18 19 20 21 22 23 24
000
FTUS45 KGJT 162340
TAFEGE
TAF
KEGE 162340Z 1700/1724 23014G24KT P6SM VCSH SCT070 BKN150
     FM170130 05004KT P6SM BKN120
     FM170700 00000KT P6SM SCT200
     FM171900 24010G20KT P6SM SCT200
      AMD LTD TO CLD VIS AND WIND 1701/1714=

USA.gov is the U.S. government's official web portal to all federal, state and local government web resources and services.